Time;durP1;ratioP1;P1;durP2;ratioP2;P2;SDS_P1;SDS_P2;PMS_P1;PMS_P2;Temp;Humidity;BMP_temperature;BMP_pressure;BME280_temperature;BME280_humidity;BME280_pressure;Samples;Min_cycle;Max_cycle;Signal;HPM_P1;HPM_P2
2022/12/13 00:00:12;;;;;;;33.13;23.10;;;;;;;;;;5081317;28;20558;-70
2022/12/13 00:02:39;;;;;;;37.83;22.70;;;;;;;;;;5078614;28;20637;-70
2022/12/13 00:05:06;;;;;;;26.93;21.70;;;;;;;;;;5078591;28;20485;-69
2022/12/13 00:07:36;;;;;;;31.03;22.63;;;;;;;;;;5083287;28;20550;-69
2022/12/13 00:10:04;;;;;;;31.67;23.00;;;;;;;;;;5077279;28;20481;-70
2022/12/13 00:12:31;;;;;;;33.83;22.90;;;;;;;;;;5081886;28;20988;-70
2022/12/13 00:14:58;;;;;;;34.30;25.67;;;;;;;;;;5097728;28;20466;-70
2022/12/13 00:17:25;;;;;;;28.97;24.10;;;;;;;;;;5089014;28;20845;-70
2022/12/13 00:19:52;;;;;;;33.63;23.60;;;;;;;;;;5084294;28;20847;-70
2022/12/13 00:22:19;;;;;;;28.27;22.93;;;;;;;;;;5080850;28;20455;-70
2022/12/13 00:24:47;;;;;;;32.07;22.03;;;;;;;;;;5089056;28;20466;-70
2022/12/13 00:27:15;;;;;;;31.57;24.77;;;;;;;;;;5086373;28;20984;-70
2022/12/13 00:29:42;;;;;;;29.20;23.63;;;;;;;;;;5079544;28;20457;-69
2022/12/13 00:32:09;;;;;;;29.40;22.90;;;;;;;;;;5078867;28;20871;-70
2022/12/13 00:34:37;;;;;;;35.03;24.87;;;;;;;;;;5079741;28;20950;-70
2022/12/13 00:37:04;;;;;;;33.37;25.03;;;;;;;;;;5085371;28;20466;-70
2022/12/13 00:39:31;;;;;;;30.10;22.33;;;;;;;;;;5077966;28;20466;-70
2022/12/13 00:41:59;;;;;;;28.23;22.47;;;;;;;;;;5079952;28;20458;-70
2022/12/13 00:44:27;;;;;;;31.93;23.50;;;;;;;;;;5077865;28;20462;-70
2022/12/13 00:46:55;;;;;;;33.70;25.90;;;;;;;;;;5079749;28;20489;-70
2022/12/13 00:49:22;;;;;;;43.80;25.33;;;;;;;;;;5080317;28;20481;-70
2022/12/13 00:51:49;;;;;;;31.20;24.43;;;;;;;;;;5075055;28;20490;-70
2022/12/13 00:54:16;;;;;;;32.33;24.70;;;;;;;;;;5083885;28;20556;-70
2022/12/13 00:56:43;;;;;;;45.67;26.87;;;;;;;;;;5078059;28;20954;-70
2022/12/13 00:59:14;;;;;;;37.97;25.07;;;;;;;;;;5078057;28;20975;-70
2022/12/13 01:01:41;;;;;;;37.03;25.83;;;;;;;;;;5077660;28;20557;-70
2022/12/13 01:04:08;;;;;;;29.43;24.03;;;;;;;;;;5083711;28;20489;-70
2022/12/13 01:06:36;;;;;;;38.20;24.20;;;;;;;;;;5081713;28;20470;-70
2022/12/13 01:09:04;;;;;;;33.80;25.50;;;;;;;;;;5085058;28;21469;-70
2022/12/13 01:11:31;;;;;;;32.97;24.57;;;;;;;;;;5079597;28;20535;-70
2022/12/13 01:13:58;;;;;;;33.87;24.43;;;;;;;;;;5076406;28;20466;-70
2022/12/13 01:16:26;;;;;;;36.40;25.00;;;;;;;;;;5081033;28;20954;-70
2022/12/13 01:18:54;;;;;;;35.73;25.37;;;;;;;;;;5079168;28;20490;-70
2022/12/13 01:21:21;;;;;;;50.27;26.23;;;;;;;;;;5081026;28;20544;-70
2022/12/13 01:23:49;;;;;;;38.07;23.40;;;;;;;;;;5079124;28;20458;-70
2022/12/13 01:26:17;;;;;;;33.53;24.33;;;;;;;;;;5078606;28;20459;-70
2022/12/13 01:28:44;;;;;;;34.67;25.50;;;;;;;;;;5078543;28;20477;-70
2022/12/13 01:31:12;;;;;;;29.73;23.97;;;;;;;;;;5071087;28;20507;-70
2022/12/13 01:33:41;;;;;;;39.20;27.60;;;;;;;;;;5077073;28;20469;-70
2022/12/13 01:36:10;;;;;;;43.17;26.13;;;;;;;;;;5072368;28;20829;-70
2022/12/13 01:38:37;;;;;;;46.60;26.33;;;;;;;;;;5073507;28;20464;-71
2022/12/13 01:41:04;;;;;;;35.33;23.87;;;;;;;;;;5081800;28;20453;-70
2022/12/13 01:43:49;;;;;;;43.00;26.60;;;;;;;;;;5083245;28;20485;-70
2022/12/13 01:46:16;;;;;;;38.83;24.37;;;;;;;;;;5080297;28;20463;-70
2022/12/13 01:48:47;;;;;;;36.07;24.03;;;;;;;;;;5082115;28;20471;-70
2022/12/13 01:51:16;;;;;;;26.13;22.73;;;;;;;;;;5079332;28;20504;-70
2022/12/13 01:53:45;;;;;;;34.43;26.80;;;;;;;;;;5076072;28;20466;-70
2022/12/13 01:56:14;;;;;;;41.57;26.23;;;;;;;;;;5080494;28;20462;-70
2022/12/13 01:58:42;;;;;;;44.77;26.10;;;;;;;;;;5080650;28;20529;-70
2022/12/13 02:01:09;;;;;;;34.63;25.00;;;;;;;;;;5081496;28;20457;-70
2022/12/13 02:03:37;;;;;;;38.03;26.30;;;;;;;;;;5075243;28;20713;-70
2022/12/13 02:06:07;;;;;;;36.30;25.70;;;;;;;;;;5079001;28;20478;-70
2022/12/13 02:08:34;;;;;;;33.40;26.90;;;;;;;;;;5078988;28;20855;-70
2022/12/13 02:11:03;;;;;;;44.43;28.20;;;;;;;;;;5082840;28;20567;-70
2022/12/13 02:13:30;;;;;;;34.10;26.37;;;;;;;;;;5074867;28;20693;-70
2022/12/13 02:15:59;;;;;;;40.37;27.50;;;;;;;;;;5077505;28;20771;-70
2022/12/13 02:18:43;;;;;;;46.63;27.57;;;;;;;;;;5070583;28;20949;-71
2022/12/13 02:21:22;;;;;;;40.37;28.37;;;;;;;;;;5078858;28;20450;-69
2022/12/13 02:24:16;;;;;;;42.43;26.60;;;;;;;;;;5072036;28;20825;-70
2022/12/13 02:26:51;;;;;;;38.27;25.43;;;;;;;;;;5069006;28;20466;-70
2022/12/13 02:29:30;;;;;;;53.47;27.00;;;;;;;;;;5081540;28;20470;-70
2022/12/13 02:32:02;;;;;;;41.70;26.00;;;;;;;;;;5071067;28;20493;-70
2022/12/13 02:34:32;;;;;;;43.27;26.50;;;;;;;;;;5076285;28;21139;-70
2022/12/13 02:37:03;;;;;;;39.47;27.87;;;;;;;;;;5079390;28;20864;-70
2022/12/13 02:39:33;;;;;;;39.37;26.50;;;;;;;;;;5071435;28;20949;-69
2022/12/13 02:42:04;;;;;;;39.80;25.77;;;-4.20;99.90;;;;;;5077837;28;20600;-70
2022/12/13 02:44:34;;;;;;;48.17;27.67;;;;;;;;;;5077225;28;20465;-70
2022/12/13 02:47:07;;;;;;;48.40;27.57;;;;;;;;;;5075986;28;20461;-69
2022/12/13 02:49:36;;;;;;;44.53;26.03;;;;;;;;;;5077778;28;20792;-70
2022/12/13 02:52:04;;;;;;;39.47;27.00;;;;;;;;;;5074041;28;20495;-70
2022/12/13 02:54:31;;;;;;;44.50;27.77;;;;;;;;;;5075552;28;20471;-70
2022/12/13 02:56:59;;;;;;;42.40;26.93;;;;;;;;;;5080320;28;20472;-70
2022/12/13 02:59:31;;;;;;;48.27;30.80;;;;;;;;;;5072386;28;20841;-70
2022/12/13 03:02:05;;;;;;;42.90;28.37;;;;;;;;;;5080611;28;20446;-70
2022/12/13 03:06:28;;;;;;;38.33;26.47;;;;;;;;;;5079390;28;20493;-70
2022/12/13 03:07:29;;;;;;;44.77;26.87;;;;;;;;;;5073369;28;20459;-70
2022/12/13 03:09:59;;;;;;;42.17;26.37;;;;;;;;;;5076543;28;20608;-70
2022/12/13 03:15:19;;;;;;;40.97;25.77;;;;;;;;;;5076559;28;20860;-70
2022/12/13 03:17:48;;;;;;;34.60;25.33;;;;;;;;;;5075317;28;20464;-69
2022/12/13 03:20:18;;;;;;;45.20;29.53;;;;;;;;;;5078796;28;20469;-69
2022/12/13 03:22:45;;;;;;;45.30;26.70;;;;;;;;;;5074528;28;20473;-70
2022/12/13 03:25:13;;;;;;;39.03;25.33;;;;;;;;;;5079670;28;20453;-70
2022/12/13 03:27:40;;;;;;;40.93;28.00;;;;;;;;;;5076428;28;20961;-69
2022/12/13 03:30:08;;;;;;;41.77;26.20;;;;;;;;;;5075800;28;20455;-69
2022/12/13 03:32:35;;;;;;;37.67;26.20;;;;;;;;;;5076845;28;20839;-70
2022/12/13 03:35:02;;;;;;;43.63;26.97;;;;;;;;;;5080688;28;20826;-70
2022/12/13 03:37:32;;;;;;;37.93;26.93;;;;;;;;;;5079084;28;20546;-69
2022/12/13 03:39:59;;;;;;;44.83;28.70;;;;;;;;;;5078339;28;20482;-69
2022/12/13 03:42:26;;;;;;;47.90;31.57;;;;;;;;;;5080465;28;20880;-70
2022/12/13 03:44:53;;;;;;;44.70;30.30;;;;;;;;;;5082013;28;20475;-69
2022/12/13 03:47:20;;;;;;;61.17;31.40;;;;;;;;;;5081945;28;20790;-69
2022/12/13 03:49:48;;;;;;;41.47;27.27;;;;;;;;;;5084871;28;21165;-69
2022/12/13 03:52:15;;;;;;;45.03;29.67;;;;;;;;;;5074631;28;20494;-70
2022/12/13 03:54:44;;;;;;;48.00;28.23;;;;;;;;;;5079796;28;20493;-69
2022/12/13 03:57:14;;;;;;;52.57;32.33;;;;;;;;;;5080059;28;20560;-70
2022/12/13 03:59:41;;;;;;;54.53;31.70;;;;;;;;;;5081511;28;20457;-70
2022/12/13 04:02:08;;;;;;;47.90;32.60;;;;;;;;;;5079918;28;20955;-70
2022/12/13 04:04:36;;;;;;;43.70;30.97;;;;;;;;;;5087688;28;20492;-70
2022/12/13 04:07:03;;;;;;;48.67;31.10;;;;;;;;;;5076755;28;20965;-69
2022/12/13 04:09:31;;;;;;;46.20;28.27;;;;;;;;;;5080798;28;20457;-69
2022/12/13 04:14:44;;;;;;;55.87;32.90;;;;;;;;;;5076151;28;20543;-70
2022/12/13 04:17:11;;;;;;;46.87;30.90;;;;;;;;;;5072381;28;20549;-69
2022/12/13 04:19:39;;;;;;;51.40;32.23;;;;;;;;;;5083037;28;20463;-70
2022/12/13 04:22:06;;;;;;;60.27;32.13;;;;;;;;;;5084396;28;20466;-69
2022/12/13 04:24:33;;;;;;;58.07;29.97;;;;;;;;;;5082195;28;20465;-69
2022/12/13 04:27:02;;;;;;;52.63;30.87;;;;;;;;;;5075855;28;20463;-70
2022/12/13 04:29:29;;;;;;;43.70;27.50;;;;;;;;;;5076855;28;20466;-69
2022/12/13 04:31:57;;;;;;;46.00;29.27;;;;;;;;;;5078552;28;20492;-70
2022/12/13 04:34:24;;;;;;;47.80;29.77;;;;;;;;;;5078934;28;20524;-70
2022/12/13 04:36:51;;;;;;;56.97;30.47;;;;;;;;;;5083331;28;20466;-70
2022/12/13 04:39:19;;;;;;;55.93;32.80;;;;;;;;;;5076770;28;20490;-69
2022/12/13 04:41:46;;;;;;;49.97;30.60;;;;;;;;;;5076255;28;20911;-69
2022/12/13 04:44:15;;;;;;;53.57;32.73;;;;;;;;;;5075334;28;20474;-70
2022/12/13 04:46:42;;;;;;;51.80;30.03;;;;;;;;;;5081558;28;20473;-69
2022/12/13 04:49:09;;;;;;;44.87;29.90;;;;;;;;;;5083391;28;20983;-70
2022/12/13 04:51:37;;;;;;;57.47;32.10;;;;;;;;;;5076513;28;20474;-69
2022/12/13 04:54:04;;;;;;;49.27;31.10;;;;;;;;;;5077449;28;20490;-69
2022/12/13 04:56:31;;;;;;;67.03;32.57;;;;;;;;;;5079400;28;20517;-69
2022/12/13 04:58:58;;;;;;;49.17;29.87;;;;;;;;;;5081781;28;20463;-70
2022/12/13 05:01:27;;;;;;;50.97;30.53;;;;;;;;;;5081939;28;20864;-70
2022/12/13 05:03:54;;;;;;;59.70;31.10;;;;;;;;;;5083557;28;20487;-70
2022/12/13 05:06:22;;;;;;;50.60;31.77;;;;;;;;;;5078082;28;20469;-69
2022/12/13 05:08:49;;;;;;;57.50;30.53;;;;;;;;;;5077474;28;20462;-70
2022/12/13 05:11:16;;;;;;;53.63;30.80;;;;;;;;;;5080051;28;20529;-69
2022/12/13 05:13:43;;;;;;;52.70;31.50;;;;;;;;;;5081422;28;20882;-69
2022/12/13 05:16:11;;;;;;;46.90;30.57;;;;;;;;;;5077577;28;20463;-70
2022/12/13 05:18:39;;;;;;;49.30;30.27;;;;;;;;;;5085522;28;20462;-69
2022/12/13 05:21:07;;;;;;;52.30;29.50;;;;;;;;;;5077721;28;20474;-70
2022/12/13 05:23:34;;;;;;;46.77;29.73;;;;;;;;;;5076727;28;21261;-70
2022/12/13 05:26:02;;;;;;;57.57;28.70;;;;;;;;;;5080403;28;21047;-69
2022/12/13 05:28:30;;;;;;;53.43;31.87;;;;;;;;;;5082132;28;20464;-69
2022/12/13 05:30:58;;;;;;;50.53;29.60;;;;;;;;;;5078041;28;20471;-69
2022/12/13 05:33:25;;;;;;;55.43;28.77;;;;;;;;;;5078294;28;20589;-69
2022/12/13 05:35:54;;;;;;;57.20;31.53;;;;;;;;;;5083958;28;20590;-70
2022/12/13 05:38:21;;;;;;;49.07;31.50;;;;;;;;;;5073384;28;20862;-69
2022/12/13 05:40:48;;;;;;;56.73;30.23;;;;;;;;;;5078918;28;20458;-69
2022/12/13 05:43:15;;;;;;;50.83;30.97;;;;;;;;;;5074625;28;20835;-69
2022/12/13 05:45:42;;;;;;;49.50;32.07;;;;;;;;;;5079437;28;20473;-69
2022/12/13 05:48:10;;;;;;;49.67;31.83;;;;;;;;;;5072000;28;20485;-68
2022/12/13 05:50:38;;;;;;;51.63;30.63;;;-4.80;99.90;;;;;;5076902;28;20954;-69
2022/12/13 05:53:06;;;;;;;54.13;32.13;;;;;;;;;;5081771;28;20580;-69
2022/12/13 05:55:33;;;;;;;55.10;31.50;;;;;;;;;;5077230;28;20543;-70
2022/12/13 05:58:00;;;;;;;50.80;29.50;;;;;;;;;;5077724;28;20451;-70
2022/12/13 06:00:28;;;;;;;62.60;32.43;;;;;;;;;;5082266;28;20469;-70
2022/12/13 06:02:55;;;;;;;47.07;31.43;;;;;;;;;;5074027;28;20475;-70
2022/12/13 06:05:22;;;;;;;47.60;31.50;;;;;;;;;;5081850;28;20501;-70
2022/12/13 06:07:49;;;;;;;60.40;30.90;;;;;;;;;;5076111;28;20809;-70
2022/12/13 06:10:19;;;;;;;53.80;32.60;;;;;;;;;;5079916;28;20551;-70
2022/12/13 06:12:46;;;;;;;63.17;31.10;;;;;;;;;;5075106;28;20491;-70
2022/12/13 06:15:13;;;;;;;49.10;29.83;;;;;;;;;;5076357;28;20464;-71
2022/12/13 06:17:41;;;;;;;58.33;32.40;;;;;;;;;;5076411;28;20882;-70
2022/12/13 06:20:08;;;;;;;56.97;32.20;;;;;;;;;;5079700;28;20471;-69
2022/12/13 06:22:35;;;;;;;63.03;34.93;;;;;;;;;;5075116;28;20471;-70
2022/12/13 06:25:03;;;;;;;68.37;34.13;;;;;;;;;;5075863;28;20484;-69
2022/12/13 06:27:31;;;;;;;51.40;32.40;;;;;;;;;;5078945;28;20507;-70
2022/12/13 06:29:58;;;;;;;71.43;33.17;;;;;;;;;;5068348;28;20466;-69
2022/12/13 06:32:25;;;;;;;68.13;34.03;;;;;;;;;;5088347;28;20540;-69
2022/12/13 06:34:52;;;;;;;59.93;30.97;;;;;;;;;;5080841;28;20976;-69
2022/12/13 06:37:20;;;;;;;63.87;30.33;;;;;;;;;;5080743;28;20977;-69
2022/12/13 06:39:48;;;;;;;61.50;34.47;;;;;;;;;;5073609;28;20593;-70
2022/12/13 06:42:16;;;;;;;53.70;32.57;;;;;;;;;;5076926;28;20472;-69
2022/12/13 06:44:45;;;;;;;69.70;33.77;;;;;;;;;;5075416;28;20969;-70
2022/12/13 06:47:12;;;;;;;61.33;32.00;;;;;;;;;;5073451;28;20458;-70
2022/12/13 06:49:39;;;;;;;72.17;33.63;;;;;;;;;;5081832;28;20478;-70
2022/12/13 06:52:06;;;;;;;60.47;32.20;;;;;;;;;;5075782;28;20481;-70
2022/12/13 06:54:34;;;;;;;64.20;33.20;;;;;;;;;;5077442;28;20494;-69
2022/12/13 06:57:01;;;;;;;60.83;32.83;;;;;;;;;;5078154;28;20923;-70
2022/12/13 06:59:28;;;;;;;68.87;32.73;;;;;;;;;;5077206;28;20847;-69
2022/12/13 07:01:56;;;;;;;69.23;36.00;;;;;;;;;;5078937;28;20474;-70
2022/12/13 07:04:23;;;;;;;59.77;32.83;;;;;;;;;;5077355;28;20492;-71
2022/12/13 07:06:51;;;;;;;61.23;33.17;;;;;;;;;;5074531;28;20471;-69
2022/12/13 07:09:18;;;;;;;59.33;34.20;;;;;;;;;;5079766;28;20924;-69
2022/12/13 07:11:45;;;;;;;63.10;34.03;;;;;;;;;;5069798;28;20467;-69
2022/12/13 07:14:13;;;;;;;64.67;33.57;;;;;;;;;;5079916;28;20500;-70
2022/12/13 07:16:40;;;;;;;53.87;28.00;;;;;;;;;;5080547;28;20458;-69
2022/12/13 07:19:08;;;;;;;70.27;32.30;;;;;;;;;;5076873;28;20466;-70
2022/12/13 07:21:37;;;;;;;55.93;33.00;;;;;;;;;;5075427;28;20482;-69
2022/12/13 07:24:04;;;;;;;60.53;33.20;;;;;;;;;;5079084;28;20491;-70
2022/12/13 07:26:31;;;;;;;61.90;33.07;;;;;;;;;;5078008;28;20977;-69
2022/12/13 07:28:58;;;;;;;49.00;31.57;;;;;;;;;;5075347;28;20539;-69
2022/12/13 07:31:26;;;;;;;62.27;32.77;;;;;;;;;;5082609;28;20598;-69
2022/12/13 07:33:53;;;;;;;64.17;34.07;;;;;;;;;;5077244;28;20477;-70
2022/12/13 07:36:22;;;;;;;53.17;31.00;;;;;;;;;;5074832;28;20465;-69
2022/12/13 07:38:51;;;;;;;51.77;31.20;;;;;;;;;;5077895;28;20873;-69
2022/12/13 07:41:18;;;;;;;59.43;32.37;;;;;;;;;;5078984;28;20462;-71
2022/12/13 07:43:45;;;;;;;59.77;31.10;;;;;;;;;;5080426;28;20478;-69
2022/12/13 07:46:12;;;;;;;48.80;32.47;;;;;;;;;;5080103;28;20941;-69
2022/12/13 07:48:39;;;;;;;45.50;29.93;;;-5.40;99.90;;;;;;5074814;28;20468;-70
2022/12/13 07:51:09;;;;;;;50.97;30.70;;;-5.40;99.90;;;;;;5084810;28;20457;-69
2022/12/13 07:53:38;;;;;;;43.70;28.73;;;;;;;;;;5085386;28;21068;-70
2022/12/13 07:56:06;;;;;;;52.67;29.10;;;;;;;;;;5082555;28;20470;-69
2022/12/13 07:58:33;;;;;;;48.30;29.73;;;;;;;;;;5081110;28;20472;-69
2022/12/13 08:01:01;;;;;;;49.83;30.23;;;;;;;;;;5087543;28;21261;-70
2022/12/13 08:03:29;;;;;;;43.10;26.83;;;;;;;;;;5086433;28;20471;-70
2022/12/13 08:06:00;;;;;;;44.80;28.70;;;;;;;;;;5084978;28;20542;-69
2022/12/13 08:08:27;;;;;;;45.20;27.57;;;;;;;;;;5080977;28;20465;-69
2022/12/13 08:10:56;;;;;;;47.70;29.87;;;;;;;;;;5075898;28;20552;-70
2022/12/13 08:13:23;;;;;;;44.53;29.03;;;;;;;;;;5079620;28;20488;-69
2022/12/13 08:15:50;;;;;;;47.27;28.20;;;;;;;;;;5091556;28;20450;-69
2022/12/13 08:18:17;;;;;;;45.57;29.50;;;;;;;;;;5074393;28;20466;-70
2022/12/13 08:20:44;;;;;;;44.57;29.80;;;;;;;;;;5080231;28;20461;-69
2022/12/13 08:23:11;;;;;;;41.60;28.63;;;;;;;;;;5086901;28;20493;-69
2022/12/13 08:25:38;;;;;;;45.07;30.50;;;;;;;;;;5089003;28;20537;-70
2022/12/13 08:28:07;;;;;;;35.63;27.13;;;;;;;;;;5089543;28;20461;-70
2022/12/13 08:30:34;;;;;;;44.67;29.10;;;;;;;;;;5084255;28;20972;-70
2022/12/13 08:33:02;;;;;;;40.80;28.57;;;;;;;;;;5078813;28;20607;-70
2022/12/13 08:35:29;;;;;;;40.57;29.40;;;;;;;;;;5081482;28;20459;-70
2022/12/13 08:37:56;;;;;;;42.87;28.43;;;;;;;;;;5078293;28;20994;-69
2022/12/13 08:40:23;;;;;;;45.17;28.60;;;;;;;;;;5079523;28;20467;-70
2022/12/13 08:42:51;;;;;;;51.00;31.03;;;;;;;;;;5083905;28;20466;-70
2022/12/13 08:45:19;;;;;;;47.60;28.67;;;;;;;;;;5084357;28;20880;-69
2022/12/13 08:47:46;;;;;;;43.20;31.70;;;;;;;;;;5081373;28;20964;-70
2022/12/13 08:50:14;;;;;;;58.60;29.97;;;;;;;;;;5084142;28;20465;-70
2022/12/13 08:52:41;;;;;;;50.10;30.10;;;;;;;;;;5075012;28;20517;-70
2022/12/13 08:55:09;;;;;;;61.53;35.03;;;;;;;;;;5089126;28;20590;-70
2022/12/13 08:57:36;;;;;;;50.90;29.83;;;;;;;;;;5077642;28;20458;-69
2022/12/13 09:00:04;;;;;;;45.67;30.60;;;;;;;;;;5091184;28;20557;-69
2022/12/13 09:02:32;;;;;;;46.87;29.97;;;;;;;;;;5078512;28;20462;-70
2022/12/13 09:04:59;;;;;;;43.67;29.20;;;;;;;;;;5078138;28;20489;-70
2022/12/13 09:07:27;;;;;;;44.67;29.67;;;;;;;;;;5085633;28;20473;-70
2022/12/13 09:09:54;;;;;;;46.00;31.03;;;;;;;;;;5084830;28;20844;-70
2022/12/13 09:12:21;;;;;;;46.70;28.10;;;;;;;;;;5084672;28;20505;-70
2022/12/13 09:14:49;;;;;;;43.63;27.40;;;;;;;;;;5088884;28;20492;-69
2022/12/13 09:17:16;;;;;;;42.83;28.73;;;;;;;;;;5087070;28;20464;-70
2022/12/13 09:19:44;;;;;;;39.83;29.70;;;;;;;;;;5089049;28;20472;-70
2022/12/13 09:22:12;;;;;;;45.13;28.23;;;;;;;;;;5096143;28;21418;-70
2022/12/13 09:24:39;;;;;;;47.93;29.50;;;;;;;;;;5079214;28;20470;-70
2022/12/13 09:27:08;;;;;;;47.57;30.30;;;;;;;;;;5075248;28;20471;-70
2022/12/13 09:29:36;;;;;;;42.27;28.60;;;;;;;;;;5081784;28;20452;-70
2022/12/13 09:32:03;;;;;;;47.40;31.17;;;;;;;;;;5081342;28;20527;-70
2022/12/13 09:34:31;;;;;;;43.20;30.67;;;;;;;;;;5075978;28;20501;-71
2022/12/13 09:37:00;;;;;;;44.83;29.80;;;;;;;;;;5086368;28;20558;-71
2022/12/13 09:39:27;;;;;;;48.43;30.53;;;;;;;;;;5082003;28;20474;-70
2022/12/13 09:41:57;;;;;;;46.03;28.87;;;;;;;;;;5090077;28;20483;-70
2022/12/13 09:44:25;;;;;;;40.90;26.90;;;;;;;;;;5078905;28;20455;-70
2022/12/13 09:46:53;;;;;;;46.03;30.23;;;;;;;;;;5075487;28;20486;-71
2022/12/13 09:49:28;;;;;;;54.20;32.50;;;-2.10;99.90;;;;;;5072885;28;20448;-70
2022/12/13 09:51:59;;;;;;;40.37;27.80;;;;;;;;;;5091184;28;20485;-70
2022/12/13 09:54:27;;;;;;;48.00;31.40;;;;;;;;;;5082271;28;20764;-71
2022/12/13 09:56:56;;;;;;;56.87;30.80;;;;;;;;;;5087503;28;20456;-71
2022/12/13 09:59:27;;;;;;;47.13;30.20;;;;;;;;;;5084250;28;20459;-71
2022/12/13 10:01:55;;;;;;;44.63;30.00;;;;;;;;;;5083381;28;20929;-71
2022/12/13 10:04:22;;;;;;;50.43;29.37;;;;;;;;;;5078422;28;20487;-71
2022/12/13 10:06:52;;;;;;;55.27;29.30;;;;;;;;;;5082715;28;20481;-71
2022/12/13 10:09:20;;;;;;;52.97;31.77;;;;;;;;;;5087790;28;20551;-71
2022/12/13 10:11:49;;;;;;;40.50;29.17;;;;;;;;;;5081261;28;20471;-71
2022/12/13 10:14:19;;;;;;;47.73;31.70;;;;;;;;;;5085921;28;20619;-71
2022/12/13 10:16:47;;;;;;;41.00;28.17;;;;;;;;;;5079456;28;20814;-71
2022/12/13 10:19:16;;;;;;;43.87;29.90;;;;;;;;;;5079274;28;20755;-71
2022/12/13 10:21:44;;;;;;;57.37;31.50;;;;;;;;;;5081548;28;20496;-71
2022/12/13 10:24:14;;;;;;;44.83;31.37;;;;;;;;;;5079596;28;20604;-71
2022/12/13 10:26:41;;;;;;;44.83;30.57;;;;;;;;;;5081890;28;20554;-71
2022/12/13 10:29:10;;;;;;;49.33;30.60;;;;;;;;;;5080714;28;20469;-71
2022/12/13 10:31:41;;;;;;;54.30;33.80;;;;;;;;;;5077860;28;20461;-71
2022/12/13 10:34:17;;;;;;;51.33;34.43;;;;;;;;;;5075609;28;20494;-71
2022/12/13 10:36:44;;;;;;;51.83;33.43;;;;;;;;;;5087286;28;20452;-71
2022/12/13 10:39:17;;;;;;;50.77;34.40;;;;;;;;;;5083383;28;20456;-71
2022/12/13 10:41:46;;;;;;;49.23;34.40;;;;;;;;;;5081098;28;20467;-71
2022/12/13 10:44:19;;;;;;;50.50;35.10;;;;;;;;;;5087117;28;20457;-71
2022/12/13 10:46:51;;;;;;;56.60;33.90;;;;;;;;;;5083655;28;20462;-71
2022/12/13 10:49:21;;;;;;;53.67;32.40;;;;;;;;;;5080919;28;20460;-71
2022/12/13 10:51:50;;;;;;;50.20;31.63;;;;;;;;;;5078931;28;20461;-71
2022/12/13 10:54:19;;;;;;;53.23;33.93;;;;;;;;;;5078411;28;20492;-71
2022/12/13 10:56:48;;;;;;;46.90;33.00;;;;;;;;;;5077354;28;20471;-71
2022/12/13 10:59:27;;;;;;;50.90;32.83;;;;;;;;;;5080418;28;20471;-71
2022/12/13 11:01:55;;;;;;;49.83;33.30;;;;;;;;;;5067201;28;20770;-71
2022/12/13 11:04:26;;;;;;;47.53;31.73;;;-0.80;99.90;;;;;;5075822;28;20520;-72
2022/12/13 11:06:53;;;;;;;48.63;33.37;;;;;;;;;;5074322;28;20797;-71
2022/12/13 11:09:28;;;;;;;46.57;33.00;;;;;;;;;;5080508;28;20568;-71
2022/12/13 11:11:56;;;;;;;49.47;35.33;;;;;;;;;;5082267;28;20549;-71
2022/12/13 11:14:25;;;;;;;57.67;36.27;;;;;;;;;;5080158;28;21252;-71
2022/12/13 11:16:56;;;;;;;43.97;32.80;;;;;;;;;;5077013;28;20968;-71
2022/12/13 11:19:26;;;;;;;48.67;34.87;;;;;;;;;;5082479;28;20472;-69
2022/12/13 11:21:54;;;;;;;52.90;34.33;;;;;;;;;;5079548;28;20467;-69
2022/12/13 11:24:22;;;;;;;48.20;33.40;;;;;;;;;;5080920;28;21199;-70
2022/12/13 11:26:52;;;;;;;56.97;33.20;;;;;;;;;;5082595;28;20725;-69
2022/12/13 11:29:34;;;;;;;46.80;33.67;;;;;;;;;;5082329;28;20464;-69
2022/12/13 11:32:09;;;;;;;49.77;36.07;;;;;;;;;;5074118;28;20856;-69
2022/12/13 11:34:39;;;;;;;51.93;35.57;;;;;;;;;;5075337;28;20488;-69
2022/12/13 11:37:11;;;;;;;58.40;38.00;;;;;;;;;;5088165;28;20458;-70
2022/12/13 11:39:41;;;;;;;57.53;40.33;;;;;;;;;;5079660;28;20504;-69
2022/12/13 11:42:11;;;;;;;49.17;38.30;;;;;;;;;;5073615;28;20467;-69
2022/12/13 11:44:44;;;;;;;56.27;39.80;;;0.50;99.90;;;;;;5078272;28;20462;-69
2022/12/13 11:47:20;;;;;;;62.53;43.50;;;0.90;99.90;;;;;;5081620;28;20473;-69
2022/12/13 11:49:49;;;;;;;54.73;42.37;;;1.40;99.90;;;;;;5072036;28;20465;-69
2022/12/13 11:52:19;;;;;;;63.40;43.87;;;;;;;;;;5078535;28;20469;-69
2022/12/13 11:54:49;;;;;;;67.37;42.77;;;;;;;;;;5082211;28;20497;-69
2022/12/13 11:57:20;;;;;;;56.93;43.17;;;;;;;;;;5082211;28;20457;-69
2022/12/13 11:59:49;;;;;;;60.00;42.77;;;;;;;;;;5080747;28;20461;-69
2022/12/13 12:02:20;;;;;;;62.87;46.37;;;;;;;;;;5082033;28;20686;-69
2022/12/13 12:04:49;;;;;;;56.77;43.80;;;;;;;;;;5079751;28;20576;-69
2022/12/13 12:07:18;;;;;;;61.80;45.40;;;;;;;;;;5077551;28;20671;-69
2022/12/13 12:09:49;;;;;;;60.10;44.33;;;;;;;;;;5087020;28;20478;-69
2022/12/13 12:12:20;;;;;;;59.07;44.97;;;;;;;;;;5073176;28;20537;-69
2022/12/13 12:14:48;;;;;;;56.67;45.57;;;;;;;;;;5071349;28;20494;-69
2022/12/13 12:17:16;;;;;;;53.60;43.97;;;;;;;;;;5084907;28;20453;-69
2022/12/13 12:19:46;;;;;;;61.23;41.90;;;;;;;;;;5080752;28;20451;-69
2022/12/13 12:22:19;;;;;;;56.63;43.27;;;;;;;;;;5082474;28;20459;-69
2022/12/13 12:24:53;;;;;;;50.13;41.90;;;;;;;;;;5082037;28;20469;-69
2022/12/13 12:27:27;;;;;;;53.97;41.20;;;;;;;;;;5080347;28;20465;-69
2022/12/13 12:30:02;;;;;;;44.20;39.23;;;;;;;;;;5080464;28;20550;-69
2022/12/13 12:32:32;;;;;;;48.80;38.70;;;;;;;;;;5078260;28;20503;-68
2022/12/13 12:35:09;;;;;;;43.73;36.80;;;;;;;;;;5079542;28;20516;-68
2022/12/13 12:37:40;;;;;;;43.90;35.67;;;;;;;;;;5083716;28;20458;-69
2022/12/13 12:40:32;;;;;;;45.13;35.87;;;2.10;99.90;;;;;;5085118;28;20483;-69
2022/12/13 12:43:02;;;;;;;44.33;36.37;;;;;;;;;;5084931;28;20718;-69
2022/12/13 12:45:34;;;;;;;39.93;34.97;;;;;;;;;;5074673;28;20494;-69
2022/12/13 12:48:07;;;;;;;40.20;35.30;;;;;;;;;;5089113;28;20468;-68
2022/12/13 12:50:38;;;;;;;41.67;34.00;;;;;;;;;;5078711;28;20465;-69
2022/12/13 12:53:14;;;;;;;39.97;33.90;;;;;;;;;;5079184;28;20499;-68
2022/12/13 12:55:49;;;;;;;43.67;35.93;;;;;;;;;;5073221;28;22429;-68
2022/12/13 12:58:21;;;;;;;41.33;34.93;;;;;;;;;;5077512;28;20458;-68
2022/12/13 13:00:53;;;;;;;36.83;32.83;;;;;;;;;;5086813;28;20493;-68
2022/12/13 13:03:22;;;;;;;41.60;34.10;;;;;;;;;;5079299;28;21095;-68
2022/12/13 13:05:52;;;;;;;39.70;35.40;;;;;;;;;;5076007;28;20973;-68
2022/12/13 13:08:21;;;;;;;40.90;34.73;;;;;;;;;;5079152;28;20455;-68
2022/12/13 13:10:49;;;;;;;39.37;34.23;;;2.40;99.90;;;;;;5078471;28;20889;-68
2022/12/13 13:13:36;;;;;;;39.50;33.87;;;;;;;;;;5078846;28;20755;-68
2022/12/13 13:16:04;;;;;;;45.17;34.70;;;;;;;;;;5081630;28;20504;-68
2022/12/13 13:18:43;;;;;;;37.27;32.13;;;;;;;;;;5082843;28;20480;-68
2022/12/13 13:21:32;;;;;;;35.53;31.70;;;;;;;;;;5088412;28;20967;-68
2022/12/13 13:24:15;;;;;;;37.47;33.23;;;;;;;;;;5076397;28;20581;-68
2022/12/13 13:26:43;;;;;;;35.00;31.10;;;;;;;;;;5076681;28;20475;-68
2022/12/13 13:29:26;;;;;;;38.33;29.93;;;;;;;;;;5076747;28;20508;-68
2022/12/13 13:31:57;;;;;;;37.03;31.50;;;;;;;;;;5078233;28;21057;-68
2022/12/13 13:34:25;;;;;;;38.00;30.70;;;;;;;;;;5084879;28;20507;-68
2022/12/13 13:36:55;;;;;;;34.70;30.60;;;;;;;;;;5087328;28;21035;-68
2022/12/13 13:39:37;;;;;;;39.17;31.07;;;;;;;;;;5087578;28;20469;-68
2022/12/13 13:42:10;;;;;;;38.77;30.93;;;;;;;;;;5080478;28;20810;-68
2022/12/13 13:44:55;;;;;;;42.93;31.30;;;;;;;;;;5078107;28;20765;-68
2022/12/13 13:50:48;;;;;;;33.67;28.90;;;;;;;;;;5052082;28;20480;-68
2022/12/13 13:53:33;;;;;;;40.00;30.60;;;;;;;;;;5049601;28;20466;-69
2022/12/13 13:56:16;;;;;;;42.77;30.77;;;;;;;;;;5075443;28;20560;-69
2022/12/13 13:59:15;;;;;;;37.73;29.20;;;;;;;;;;5085601;28;20470;-68
2022/12/13 14:01:59;;;;;;;41.17;29.30;;;;;;;;;;5088960;28;20489;-69
2022/12/13 14:04:46;;;;;;;37.23;30.30;;;;;;;;;;5091195;28;20992;-69
2022/12/13 14:07:32;;;;;;;32.57;29.03;;;;;;;;;;5082462;28;20471;-68
2022/12/13 14:10:18;;;;;;;38.63;29.10;;;;;;;;;;5078621;28;20461;-68
2022/12/13 14:13:04;;;;;;;31.70;28.27;;;;;;;;;;5081459;28;20462;-68
2022/12/13 14:16:01;;;;;;;41.93;29.93;;;0.70;99.90;;;;;;5078029;28;20821;-68
2022/12/13 14:18:43;;;;;;;35.70;29.00;;;;;;;;;;5049012;28;20466;-68
2022/12/13 14:21:25;;;;;;;38.40;29.57;;;;;;;;;;5087540;28;20461;-68
2022/12/13 14:23:59;;;;;;;32.87;26.30;;;;;;;;;;5083097;28;20465;-68
2022/12/13 14:26:32;;;;;;;32.80;28.07;;;;;;;;;;5082344;28;20468;-68
2022/12/13 14:29:01;;;;;;;36.60;28.43;;;;;;;;;;5087079;28;20995;-68
2022/12/13 14:31:32;;;;;;;33.83;27.60;;;;;;;;;;5080828;28;20660;-68
2022/12/13 14:34:06;;;;;;;38.10;29.03;;;;;;;;;;5074097;28;20463;-68
2022/12/13 14:36:37;;;;;;;42.53;29.30;;;;;;;;;;5080551;28;20580;-68